createdAt,value
2019-04-30T00:00:15.785Z,99.99
2019-04-30T00:01:18.742Z,99.99
2019-04-30T00:02:15.938Z,99.99
2019-04-30T00:03:18.042Z,99.99
2019-04-30T00:04:15.796Z,99.99
2019-04-30T00:05:18.794Z,99.99
2019-04-30T00:06:15.727Z,99.99
2019-04-30T00:07:18.926Z,99.99
2019-04-30T00:08:16.012Z,99.99
2019-04-30T00:09:18.980Z,99.99
2019-04-30T00:10:15.525Z,99.99
2019-04-30T00:11:19.298Z,99.99
2019-04-30T00:12:15.758Z,99.99
2019-04-30T00:13:20.629Z,99.99
2019-04-30T00:14:15.361Z,99.99
2019-04-30T00:15:18.382Z,99.99
2019-04-30T00:16:15.488Z,99.99
2019-04-30T00:17:19.520Z,99.99
2019-04-30T00:18:15.630Z,99.99
2019-04-30T00:19:19.464Z,99.99
2019-04-30T00:20:17.746Z,99.99
2019-04-30T00:21:18.711Z,99.99
2019-04-30T00:22:15.838Z,99.99
2019-04-30T00:23:17.778Z,99.99
2019-04-30T00:24:15.949Z,99.99
2019-04-30T00:25:19.585Z,99.99
2019-04-30T00:26:17.247Z,99.99
2019-04-30T00:27:15.737Z,99.99
2019-04-30T00:28:15.766Z,99.99
2019-04-30T00:29:19.216Z,99.99
2019-04-30T00:30:15.823Z,99.99
2019-04-30T00:31:17.628Z,99.99
2019-04-30T00:32:16.103Z,99.99
2019-04-30T00:33:22.168Z,99.99
2019-04-30T00:34:15.941Z,99.99
2019-04-30T00:35:19.621Z,99.99
2019-04-30T00:36:17.324Z,99.99
2019-04-30T00:37:18.889Z,99.99
2019-04-30T00:38:16.077Z,99.99
2019-04-30T00:39:16.747Z,99.99
2019-04-30T00:40:16.117Z,99.99
2019-04-30T00:41:16.146Z,99.99
2019-04-30T00:42:18.649Z,99.99
2019-04-30T00:43:16.205Z,99.99
2019-04-30T00:44:19.936Z,99.99
2019-04-30T00:45:16.265Z,99.99
2019-04-30T00:46:17.366Z,99.99
2019-04-30T00:47:16.321Z,99.99
2019-04-30T00:48:19.423Z,99.99
2019-04-30T00:49:23.011Z,99.99
2019-04-30T00:50:16.410Z,99.99
2019-04-30T00:51:20.999Z,99.99
2019-04-30T00:52:16.469Z,99.99
2019-04-30T00:53:16.678Z,99.99
2019-04-30T00:54:17.654Z,99.99
2019-04-30T00:55:16.567Z,99.99
2019-04-30T00:56:19.983Z,99.99
2019-04-30T00:57:16.616Z,99.99
2019-04-30T00:58:24.478Z,99.99
2019-04-30T00:59:16.676Z,99.99
2019-04-30T01:00:19.599Z,99.99
2019-04-30T01:01:16.733Z,99.99
2019-04-30T01:02:20.136Z,99.99
2019-04-30T01:03:16.792Z,99.99
2019-04-30T01:04:19.459Z,99.99
2019-04-30T01:05:16.852Z,99.99
2019-04-30T01:06:24.000Z,99.99
2019-04-30T01:07:16.915Z,99.99
2019-04-30T01:08:21.141Z,99.99
2019-04-30T01:09:16.968Z,99.99
2019-04-30T01:10:19.618Z,99.99
2019-04-30T01:11:17.027Z,99.99
2019-04-30T01:12:24.587Z,99.99
2019-04-30T01:13:17.085Z,99.99
2019-04-30T01:14:18.866Z,99.99
2019-04-30T01:15:18.942Z,99.99
2019-04-30T01:16:17.172Z,99.99
2019-04-30T01:17:18.889Z,99.99
2019-04-30T01:18:19.180Z,99.99
2019-04-30T01:19:27.522Z,99.99
2019-04-30T01:20:19.242Z,99.99
2019-04-30T01:21:18.495Z,99.99
2019-04-30T01:22:21.582Z,99.99
2019-04-30T01:23:17.377Z,99.99
2019-04-30T01:24:19.021Z,99.99
2019-04-30T01:25:18.724Z,99.99
2019-04-30T01:26:18.726Z,99.99
2019-04-30T01:27:18.809Z,99.99
2019-04-30T01:28:22.876Z,99.99
2019-04-30T01:29:19.244Z,99.99
2019-04-30T01:30:21.559Z,99.99
2019-04-30T01:31:18.792Z,99.99
2019-04-30T01:32:20.929Z,99.99
2019-04-30T01:33:19.128Z,99.99
2019-04-30T01:34:19.453Z,99.99
2019-04-30T01:35:19.134Z,99.99
2019-04-30T01:36:19.274Z,99.99
2019-04-30T01:37:20.306Z,99.99
2019-04-30T01:38:18.938Z,99.99
2019-04-30T01:39:19.552Z,99.99
2019-04-30T01:40:19.028Z,99.99
2019-04-30T01:41:20.310Z,99.99
2019-04-30T01:42:18.526Z,99.99
2019-04-30T01:43:23.178Z,99.99
2019-04-30T01:44:19.531Z,99.99
2019-04-30T01:45:18.813Z,99.99
2019-04-30T01:46:18.955Z,99.99
2019-04-30T01:47:21.379Z,99.99
2019-04-30T01:48:19.377Z,99.99
2019-04-30T01:49:20.051Z,99.99
2019-04-30T01:50:19.407Z,99.99
2019-04-30T01:51:21.687Z,99.99
2019-04-30T01:52:19.392Z,99.99
2019-04-30T01:53:18.633Z,99.99
2019-04-30T01:54:23.943Z,99.99
2019-04-30T01:55:19.669Z,99.99
2019-04-30T01:56:19.169Z,99.99
2019-04-30T01:57:19.274Z,99.99
2019-04-30T01:58:19.393Z,99.99
2019-04-30T01:59:19.068Z,99.99
2019-04-30T02:00:19.548Z,99.99
2019-04-30T02:01:19.038Z,99.99
2019-04-30T02:02:18.584Z,99.99
2019-04-30T02:03:19.331Z,99.99
2019-04-30T02:04:19.610Z,99.99
2019-04-30T02:05:18.923Z,99.99
2019-04-30T02:06:19.692Z,99.99
2019-04-30T02:07:19.069Z,99.99
2019-04-30T02:08:19.559Z,99.99
2019-04-30T02:09:20.489Z,99.99
2019-04-30T02:10:18.811Z,99.99
2019-04-30T02:11:19.069Z,99.99
2019-04-30T02:12:19.730Z,99.99
2019-04-30T02:13:18.951Z,99.99
2019-04-30T02:14:19.033Z,99.99
2019-04-30T02:15:19.339Z,99.99
2019-04-30T02:16:21.079Z,99.99
2019-04-30T02:17:19.285Z,99.99
2019-04-30T02:18:19.539Z,99.99
2019-04-30T02:19:19.018Z,99.99
2019-04-30T02:20:19.048Z,99.99
2019-04-30T02:21:19.491Z,99.99
2019-04-30T02:22:19.100Z,99.99
2019-04-30T02:23:19.677Z,99.99
2019-04-30T02:24:19.324Z,99.99
2019-04-30T02:25:19.585Z,99.99
2019-04-30T02:26:19.217Z,99.99
2019-04-30T02:27:21.654Z,99.99
2019-04-30T02:28:19.274Z,99.99
2019-04-30T02:29:19.306Z,99.99
2019-04-30T02:30:20.871Z,99.99
2019-04-30T02:31:22.838Z,99.99
2019-04-30T02:32:20.852Z,99.99
2019-04-30T02:33:20.117Z,99.99
2019-04-30T02:34:22.061Z,99.99
2019-04-30T02:35:19.583Z,99.99
2019-04-30T02:37:02.055Z,99.99
2019-04-30T02:38:02.086Z,99.99
2019-04-30T02:52:03.926Z,99.99
2019-04-30T02:53:03.951Z,99.99
2019-04-30T02:54:03.983Z,99.99
2019-04-30T02:55:04.016Z,99.99
2019-04-30T02:56:04.040Z,99.99
2019-04-30T02:57:04.069Z,99.99
2019-04-30T02:58:04.125Z,99.99
2019-04-30T02:59:04.147Z,99.99
2019-04-30T03:00:04.159Z,99.99
2019-04-30T03:01:04.186Z,99.99
2019-04-30T03:02:04.216Z,99.99
2019-04-30T03:03:04.242Z,99.99
2019-04-30T04:41:59.807Z,99.99
2019-04-30T04:42:57.367Z,99.99
2019-04-30T04:43:59.878Z,99.99
2019-04-30T04:44:59.435Z,99.99
2019-04-30T04:45:59.471Z,99.99
2019-04-30T04:47:00.018Z,99.99
2019-04-30T04:47:59.713Z,99.99
2019-04-30T04:48:59.613Z,99.99
2019-04-30T04:50:00.364Z,99.99
2019-04-30T04:50:59.893Z,99.99
2019-04-30T04:51:59.179Z,99.99
2019-04-30T04:52:59.460Z,99.99
2019-04-30T04:54:00.145Z,99.99
2019-04-30T04:55:01.137Z,99.99
2019-04-30T04:55:59.920Z,99.99
2019-04-30T04:57:11.146Z,99.99
2019-04-30T04:57:59.820Z,99.99
2019-04-30T04:58:59.992Z,99.99
2019-04-30T05:00:02.484Z,99.99
2019-04-30T05:00:59.219Z,99.99
2019-04-30T05:01:59.826Z,99.99
2019-04-30T05:02:59.345Z,99.99
2019-04-30T05:03:59.062Z,99.99
2019-04-30T05:04:59.934Z,99.99
2019-04-30T05:06:01.809Z,99.99
2019-04-30T05:07:00.123Z,99.99
2019-04-30T05:07:58.429Z,99.99
2019-04-30T05:08:59.484Z,99.99
2019-04-30T05:10:00.547Z,99.99
2019-04-30T05:10:59.441Z,99.99
2019-04-30T05:11:58.602Z,99.99
2019-04-30T05:12:59.212Z,99.99
2019-04-30T05:13:58.948Z,99.99
2019-04-30T05:14:59.761Z,99.99
2019-04-30T05:15:59.385Z,99.99
2019-04-30T05:16:58.688Z,99.99
2019-04-30T05:17:59.212Z,99.99
2019-04-30T05:18:58.595Z,99.99
2019-04-30T05:19:58.746Z,99.99
2019-04-30T05:20:58.988Z,99.99
2019-04-30T05:21:59.665Z,99.99
2019-04-30T05:22:58.639Z,99.99
2019-04-30T05:23:59.086Z,99.99
2019-04-30T05:24:59.063Z,99.99
2019-04-30T05:25:58.925Z,99.99
2019-04-30T05:26:58.714Z,99.99
2019-04-30T05:27:58.780Z,99.99
2019-04-30T05:28:59.461Z,99.99
2019-04-30T05:29:59.586Z,99.99
2019-04-30T05:30:59.366Z,99.99
2019-04-30T05:31:58.762Z,99.99
2019-04-30T05:32:58.956Z,99.99
2019-04-30T05:33:58.823Z,99.99
2019-04-30T05:34:58.851Z,99.99
2019-04-30T05:35:59.393Z,99.99
2019-04-30T05:37:01.018Z,99.99
2019-04-30T05:37:59.309Z,99.99
2019-04-30T05:38:58.970Z,99.99
2019-04-30T05:40:01.003Z,99.99
2019-04-30T05:40:59.596Z,99.99
2019-04-30T05:41:59.056Z,99.99
2019-04-30T05:43:00.413Z,99.99
2019-04-30T05:43:59.445Z,99.99
2019-04-30T05:44:59.337Z,99.99
2019-04-30T05:45:59.200Z,99.99
2019-04-30T05:46:59.306Z,99.99
2019-04-30T05:47:59.254Z,99.99
2019-04-30T05:48:59.503Z,99.99
2019-04-30T05:49:59.294Z,99.99
2019-04-30T05:50:59.346Z,99.99
2019-04-30T05:51:59.436Z,99.99
2019-04-30T05:53:59.412Z,99.99
2019-04-30T05:55:00.151Z,99.99
2019-04-30T05:55:59.494Z,99.99
2019-04-30T05:56:59.501Z,99.99
2019-04-30T05:58:01.510Z,99.99
2019-04-30T06:00:59.894Z,99.99
2019-04-30T06:01:59.657Z,99.99
2019-04-30T06:02:59.730Z,99.99
2019-04-30T06:03:59.716Z,99.99
2019-04-30T06:04:59.737Z,99.99
2019-04-30T06:05:59.769Z,99.99
2019-04-30T06:06:59.797Z,99.99
2019-04-30T06:07:59.825Z,99.99
2019-04-30T06:09:06.511Z,99.99
2019-04-30T06:09:59.885Z,99.99
2019-04-30T06:10:59.915Z,99.99
2019-04-30T06:11:59.946Z,99.99
2019-04-30T06:12:59.974Z,99.99
2019-04-30T06:14:00.007Z,99.99
2019-04-30T06:15:00.057Z,99.99
2019-04-30T06:16:00.065Z,99.99
2019-04-30T06:17:00.120Z,99.99
2019-04-30T06:18:06.816Z,99.99
2019-04-30T06:19:00.151Z,99.99
2019-04-30T06:20:00.183Z,99.99
2019-04-30T06:21:00.210Z,99.99
2019-04-30T06:22:07.770Z,99.99
2019-04-30T06:23:00.309Z,99.99
2019-04-30T06:24:00.679Z,99.99
2019-04-30T06:25:00.356Z,99.99
2019-04-30T06:26:08.984Z,99.99
2019-04-30T06:27:00.389Z,99.99
2019-04-30T06:28:00.442Z,99.99
2019-04-30T06:30:00.907Z,99.99
2019-04-30T06:34:00.620Z,99.99
2019-04-30T06:37:02.126Z,99.99
2019-04-30T06:38:01.426Z,99.99
2019-04-30T06:39:00.745Z,99.99
2019-04-30T06:40:00.801Z,99.99
2019-04-30T06:41:01.232Z,99.99
2019-04-30T06:43:01.069Z,99.99
2019-04-30T06:44:00.894Z,99.99
2019-04-30T06:45:00.924Z,99.99
2019-04-30T06:46:00.953Z,99.99
2019-04-30T06:47:01.307Z,99.99
2019-04-30T06:48:01.012Z,99.99
2019-04-30T06:49:01.045Z,99.99
2019-04-30T06:50:01.326Z,99.99
2019-04-30T06:51:01.104Z,99.99
2019-04-30T06:52:01.133Z,99.99
2019-04-30T06:53:01.757Z,99.99
2019-04-30T06:54:01.194Z,99.99
2019-04-30T06:55:01.433Z,99.99
2019-04-30T06:56:01.255Z,99.99
2019-04-30T06:57:01.304Z,99.99
2019-04-30T06:58:12.094Z,99.99
2019-04-30T06:59:01.364Z,99.99
2019-04-30T07:00:01.395Z,99.99
2019-04-30T07:01:01.426Z,99.99
2019-04-30T07:02:01.454Z,99.99
2019-04-30T07:03:01.462Z,99.99
2019-04-30T07:04:01.515Z,99.99
2019-04-30T07:05:01.547Z,99.99
2019-04-30T07:06:01.575Z,99.99
2019-04-30T07:07:01.605Z,99.99
2019-04-30T07:08:08.899Z,99.99
2019-04-30T07:09:01.666Z,99.99
2019-04-30T07:11:07.440Z,99.99
2019-04-30T07:12:01.892Z,99.99
2019-04-30T07:13:01.989Z,99.99
2019-04-30T07:14:01.812Z,99.99
2019-04-30T07:15:01.820Z,99.99
2019-04-30T07:16:02.052Z,99.99
2019-04-30T07:17:02.209Z,99.99
2019-04-30T07:18:01.931Z,99.99
2019-04-30T07:19:01.941Z,99.99
2019-04-30T07:20:01.969Z,99.99
2019-04-30T07:21:01.998Z,99.99
2019-04-30T07:22:02.031Z,99.99
2019-04-30T07:23:03.338Z,99.99
2019-04-30T07:24:02.119Z,99.99
2019-04-30T07:25:02.448Z,99.99
2019-04-30T07:26:02.175Z,99.99
2019-04-30T07:27:02.857Z,99.99
2019-04-30T07:30:03.205Z,99.99
2019-04-30T07:31:13.169Z,99.99
2019-04-30T07:33:02.358Z,99.99
2019-04-30T07:34:02.388Z,99.99
2019-04-30T07:35:02.417Z,99.99
2019-04-30T07:36:02.447Z,99.99
2019-04-30T07:37:13.391Z,99.99
2019-04-30T07:38:04.817Z,99.99
2019-04-30T07:41:02.621Z,99.99
2019-04-30T07:42:02.852Z,99.99
2019-04-30T07:43:02.678Z,99.99
2019-04-30T07:44:02.688Z,99.99
2019-04-30T07:45:02.719Z,99.99
2019-04-30T07:46:02.747Z,99.99
2019-04-30T07:47:02.777Z,99.99
2019-04-30T07:49:03.953Z,99.99
2019-04-30T07:51:02.899Z,99.99
2019-04-30T07:52:03.651Z,99.99
2019-04-30T07:53:06.330Z,99.99
2019-04-30T07:54:02.989Z,99.99
2019-04-30T07:55:03.052Z,99.99
2019-04-30T07:56:03.077Z,99.99
2019-04-30T07:57:03.454Z,99.99
2019-04-30T07:58:03.119Z,99.99
2019-04-30T07:59:03.201Z,99.99
2019-04-30T08:00:03.375Z,99.99
2019-04-30T08:02:10.880Z,99.99
2019-04-30T08:03:03.264Z,99.99
2019-04-30T08:04:03.298Z,99.99
2019-04-30T08:05:03.347Z,99.99
2019-04-30T08:07:03.560Z,99.99
2019-04-30T08:08:17.719Z,99.99
2019-04-30T08:09:03.601Z,99.99
2019-04-30T08:10:03.476Z,99.99
2019-04-30T08:11:03.507Z,99.99
2019-04-30T08:12:05.058Z,99.99
2019-04-30T08:13:10.062Z,99.99
2019-04-30T08:14:03.939Z,99.99
2019-04-30T08:15:03.667Z,99.99
2019-04-30T08:16:03.659Z,99.99
2019-04-30T08:17:03.734Z,99.99
2019-04-30T08:18:05.978Z,99.99
2019-04-30T08:19:03.817Z,99.99
2019-04-30T08:20:03.809Z,99.99
2019-04-30T08:21:03.838Z,99.99
2019-04-30T08:22:05.967Z,99.99
2019-04-30T08:23:15.585Z,99.99
2019-04-30T08:24:03.926Z,99.99
2019-04-30T08:25:03.961Z,99.99
2019-04-30T08:26:03.967Z,99.99
2019-04-30T08:27:04.071Z,99.99
2019-04-30T08:28:04.027Z,99.99
2019-04-30T08:29:04.059Z,99.99
2019-04-30T08:30:04.091Z,99.99
2019-04-30T08:31:04.120Z,99.99
2019-04-30T08:32:04.150Z,99.99
2019-04-30T08:33:04.182Z,99.99
2019-04-30T08:34:04.215Z,99.99
2019-04-30T08:35:04.243Z,99.99
2019-04-30T08:36:04.274Z,99.99
2019-04-30T08:37:16.647Z,99.99
2019-04-30T08:38:04.337Z,99.99
2019-04-30T08:39:04.368Z,99.99
2019-04-30T08:40:04.450Z,99.99
2019-04-30T08:41:04.431Z,99.99
2019-04-30T08:42:04.462Z,99.99
2019-04-30T08:43:04.493Z,99.99
2019-04-30T08:44:04.524Z,99.99
2019-04-30T08:45:04.557Z,99.99
2019-04-30T08:46:04.587Z,99.99
2019-04-30T08:47:04.619Z,99.99
2019-04-30T08:48:04.650Z,99.99
2019-04-30T08:49:04.900Z,99.99
2019-04-30T08:50:04.755Z,99.99
2019-04-30T08:51:04.747Z,99.99
2019-04-30T08:53:33.477Z,99.99
2019-04-30T08:54:29.903Z,99.99
2019-04-30T08:55:30.516Z,99.99
2019-04-30T08:56:29.969Z,99.99
2019-04-30T08:57:30.223Z,99.99
2019-04-30T08:58:30.044Z,99.99
2019-04-30T08:59:30.063Z,99.99
2019-04-30T09:00:30.093Z,99.99
2019-04-30T09:01:30.124Z,99.99
2019-04-30T09:02:30.158Z,99.99
2019-04-30T09:03:30.188Z,99.99
2019-04-30T09:04:30.221Z,99.99
2019-04-30T09:05:30.617Z,99.99
2019-04-30T09:06:30.411Z,99.99
2019-04-30T09:07:30.331Z,99.99
2019-04-30T09:08:30.345Z,99.99
2019-04-30T09:09:30.382Z,99.99
2019-04-30T09:10:30.416Z,99.99
2019-04-30T09:11:38.531Z,99.99
2019-04-30T09:12:30.472Z,99.99
2019-04-30T09:13:30.506Z,99.99
2019-04-30T09:14:30.540Z,99.99
2019-04-30T09:15:30.573Z,99.99
2019-04-30T09:16:30.629Z,99.99
2019-04-30T09:17:30.631Z,99.99
2019-04-30T09:18:30.668Z,99.99
2019-04-30T09:19:30.695Z,99.99
2019-04-30T09:20:30.725Z,99.99
2019-04-30T09:21:30.758Z,99.99
2019-04-30T09:22:30.789Z,99.99
2019-04-30T09:23:44.014Z,99.99
2019-04-30T09:24:31.182Z,99.99
2019-04-30T09:25:30.885Z,99.99
2019-04-30T09:26:30.917Z,99.99
2019-04-30T09:27:30.950Z,99.99
2019-04-30T09:28:30.980Z,99.99
2019-04-30T09:29:31.013Z,99.99
2019-04-30T09:30:31.043Z,99.99
2019-04-30T09:31:31.076Z,99.99
2019-04-30T09:32:31.108Z,99.99
2019-04-30T09:33:31.138Z,99.99
2019-04-30T09:34:31.170Z,99.99
2019-04-30T09:35:32.207Z,99.99
2019-04-30T09:36:31.235Z,99.99
2019-04-30T09:37:31.266Z,99.99
2019-04-30T09:38:31.298Z,99.99
2019-04-30T09:39:31.333Z,99.99
2019-04-30T09:40:32.562Z,99.99
2019-04-30T09:41:31.401Z,99.99
2019-04-30T09:42:31.427Z,99.99
2019-04-30T09:43:31.459Z,99.99
2019-04-30T09:44:31.492Z,99.99
2019-04-30T09:45:31.521Z,99.99
2019-04-30T09:46:31.556Z,99.99
2019-04-30T09:47:31.587Z,99.99
2019-04-30T09:48:31.618Z,99.99
2019-04-30T09:49:31.651Z,99.99
2019-04-30T09:50:31.986Z,99.99
2019-04-30T09:51:32.116Z,99.99
2019-04-30T09:52:32.083Z,99.99
2019-04-30T09:53:31.966Z,99.99
2019-04-30T09:55:31.846Z,99.99
2019-04-30T09:56:31.882Z,99.05
2019-04-30T09:57:31.911Z,97.76
2019-04-30T09:58:31.945Z,96.32
2019-04-30T09:59:31.979Z,96.42
2019-04-30T10:00:32.011Z,97.09
2019-04-30T10:01:33.188Z,97.04
2019-04-30T10:02:32.079Z,97.71
2019-04-30T10:03:32.945Z,97.90
2019-04-30T10:04:32.551Z,97.56
2019-04-30T10:05:32.181Z,97.71
2019-04-30T10:06:39.517Z,99.43
2019-04-30T10:07:32.252Z,96.66
2019-04-30T10:08:32.381Z,96.66
2019-04-30T10:09:32.319Z,97.80
2019-04-30T10:10:32.353Z,96.18
2019-04-30T10:11:32.386Z,97.28
2019-04-30T10:12:32.423Z,98.28
2019-04-30T10:13:32.455Z,97.33
2019-04-30T10:14:32.493Z,97.71
2019-04-30T10:15:32.529Z,98.05
2019-04-30T10:16:32.557Z,99.00
2019-04-30T10:17:32.593Z,97.66
2019-04-30T10:18:32.627Z,97.71
2019-04-30T10:19:32.661Z,96.66
2019-04-30T10:20:32.694Z,97.33
2019-04-30T10:21:32.728Z,98.10
2019-04-30T10:22:32.763Z,95.94
2019-04-30T10:23:32.797Z,96.32
2019-04-30T10:24:33.961Z,95.75
2019-04-30T10:25:32.864Z,95.65
2019-04-30T10:26:32.902Z,94.50
2019-04-30T10:27:32.940Z,93.93
2019-04-30T10:28:32.969Z,94.02
2019-04-30T10:29:33.003Z,93.44
2019-04-30T10:30:33.036Z,95.79
2019-04-30T10:31:33.073Z,93.15
2019-04-30T10:32:33.106Z,90.85
2019-04-30T10:33:33.147Z,90.52
2019-04-30T10:34:33.176Z,93.44
2019-04-30T10:35:33.213Z,94.02
2019-04-30T10:36:33.249Z,94.79
2019-04-30T10:37:33.283Z,93.54
2019-04-30T10:38:33.319Z,94.89
2019-04-30T10:39:33.355Z,95.60
2019-04-30T10:40:33.413Z,93.88
2019-04-30T10:41:33.425Z,94.26
2019-04-30T10:42:34.834Z,92.77
2019-04-30T10:45:59.382Z,93.88
2019-04-30T10:46:59.498Z,94.07
2019-04-30T10:47:59.453Z,96.37
2019-04-30T10:48:59.495Z,95.51
2019-04-30T10:49:59.527Z,94.17
2019-04-30T10:50:59.556Z,93.73
2019-04-30T10:52:01.137Z,94.74
2019-04-30T10:52:59.627Z,96.08
2019-04-30T10:54:47.224Z,95.51
2019-04-30T10:55:48.595Z,97.90
2019-04-30T10:56:49.016Z,96.18
2019-04-30T10:57:47.327Z,95.12
2019-04-30T10:58:47.457Z,94.45
2019-04-30T10:59:48.697Z,93.83
2019-04-30T11:00:47.430Z,95.51
2019-04-30T11:01:49.234Z,95.31
2019-04-30T11:02:49.523Z,95.51
2019-04-30T11:03:47.532Z,95.12
2019-04-30T11:04:47.567Z,92.15
2019-04-30T11:05:48.836Z,93.06
2019-04-30T11:06:47.635Z,93.40
2019-04-30T11:07:49.444Z,93.35
2019-04-30T11:08:47.704Z,92.20
2019-04-30T11:09:49.322Z,92.58
2019-04-30T11:10:47.776Z,91.48
2019-04-30T11:11:49.604Z,90.04
2019-04-30T11:12:47.844Z,88.70
2019-04-30T11:13:47.877Z,88.89
2019-04-30T11:14:47.912Z,89.27
2019-04-30T11:15:49.210Z,90.04
2019-04-30T11:16:51.222Z,89.85
2019-04-30T11:17:49.620Z,90.19
2019-04-30T11:18:48.277Z,91.67
2019-04-30T11:19:49.262Z,89.65
2019-04-30T11:20:49.773Z,89.32
2019-04-30T11:21:48.346Z,89.37
2019-04-30T11:22:48.211Z,89.94
2019-04-30T11:23:49.405Z,88.37
2019-04-30T11:24:58.754Z,89.32
2019-04-30T11:25:50.854Z,89.85
2019-04-30T11:26:50.176Z,89.51
2019-04-30T11:27:50.604Z,89.18
2019-04-30T11:28:48.639Z,87.64
2019-04-30T11:29:49.451Z,87.44
2019-04-30T11:30:48.665Z,86.72
2019-04-30T11:31:48.758Z,86.43
2019-04-30T11:32:48.804Z,85.86
2019-04-30T11:33:48.854Z,85.37
2019-04-30T11:35:52.838Z,84.99
2019-04-30T11:36:48.696Z,84.94
2019-04-30T11:37:48.730Z,82.09
2019-04-30T11:38:48.830Z,83.40
2019-04-30T11:39:48.805Z,83.53
2019-04-30T11:40:48.841Z,81.04
2019-04-30T11:41:48.879Z,81.17
2019-04-30T11:42:48.915Z,82.29
2019-04-30T11:43:49.615Z,81.81
2019-04-30T11:44:49.217Z,83.01
2019-04-30T11:45:49.029Z,84.30
2019-04-30T11:46:49.553Z,83.06
2019-04-30T11:47:53.670Z,82.81
2019-04-30T11:48:49.140Z,80.98
2019-04-30T11:49:49.175Z,80.11
2019-04-30T11:50:49.746Z,80.54
2019-04-30T11:51:49.280Z,79.38
2019-04-30T11:52:49.287Z,79.82
2019-04-30T11:53:49.335Z,79.82
2019-04-30T11:54:54.144Z,79.98
2019-04-30T11:55:49.399Z,80.55
2019-04-30T11:56:50.450Z,81.32
2019-04-30T11:57:49.583Z,80.69
2019-04-30T11:58:49.520Z,80.36
2019-04-30T11:59:49.548Z,80.17
2019-04-30T12:00:49.633Z,80.84
2019-04-30T12:01:49.622Z,80.36
2019-04-30T12:02:52.788Z,81.61
2019-04-30T12:03:49.856Z,81.09
2019-04-30T12:04:49.733Z,81.42
2019-04-30T12:05:49.770Z,80.84
2019-04-30T12:06:49.805Z,80.51
2019-04-30T12:07:50.649Z,81.87
2019-04-30T12:08:49.879Z,82.78
2019-04-30T12:09:49.916Z,84.08
2019-04-30T12:10:49.957Z,83.94
2019-04-30T12:11:50.675Z,85.28
2019-04-30T12:12:50.025Z,85.86
2019-04-30T12:13:50.063Z,87.30
2019-04-30T12:14:50.104Z,87.01
2019-04-30T12:15:50.235Z,86.72
2019-04-30T12:16:50.644Z,86.29
2019-04-30T12:17:50.210Z,86.38
2019-04-30T12:18:50.245Z,85.71
2019-04-30T12:19:50.281Z,84.27
2019-04-30T12:20:50.317Z,84.47
2019-04-30T12:21:50.355Z,84.47
2019-04-30T12:22:50.390Z,85.42
2019-04-30T12:23:50.427Z,85.52
2019-04-30T12:25:02.185Z,85.62
2019-04-30T12:25:50.501Z,84.31
2019-04-30T12:26:50.538Z,84.60
2019-04-30T12:27:50.571Z,85.28
2019-04-30T12:28:50.607Z,85.28
2019-04-30T12:29:50.643Z,84.60
2019-04-30T12:30:50.679Z,84.80
2019-04-30T12:31:50.717Z,85.14
2019-04-30T12:32:50.750Z,85.04
2019-04-30T12:33:50.794Z,86.05
2019-04-30T12:34:50.822Z,87.44
2019-04-30T12:35:51.347Z,85.96
2019-04-30T12:36:50.897Z,86.30
2019-04-30T12:37:52.509Z,88.45
2019-04-30T12:38:50.970Z,88.45
2019-04-30T12:39:51.003Z,87.68
2019-04-30T12:40:51.037Z,87.16
2019-04-30T12:41:51.081Z,88.02
2019-04-30T12:42:51.128Z,88.17
2019-04-30T12:43:51.147Z,89.61
2019-04-30T12:44:51.203Z,88.70
2019-04-30T12:46:02.225Z,88.41
2019-04-30T12:46:51.251Z,88.46
2019-04-30T12:47:51.287Z,87.93
2019-04-30T12:48:51.323Z,88.12
2019-04-30T12:49:51.358Z,88.31
2019-04-30T12:50:51.394Z,89.13
2019-04-30T12:51:51.430Z,90.09
2019-04-30T12:52:51.463Z,89.18
2019-04-30T12:53:51.499Z,89.94
2019-04-30T12:54:51.534Z,89.32
2019-04-30T12:55:51.571Z,88.07
2019-04-30T12:56:51.606Z,86.58
2019-04-30T12:57:58.793Z,87.40
2019-04-30T12:58:51.679Z,88.35
2019-04-30T12:59:51.714Z,86.77
2019-04-30T13:00:51.748Z,84.22
2019-04-30T13:01:51.783Z,83.59
2019-04-30T13:02:51.819Z,80.21
2019-04-30T13:03:58.655Z,78.34
2019-04-30T13:04:51.892Z,73.89
2019-04-30T13:05:52.513Z,73.85
2019-04-30T13:06:52.502Z,76.80
2019-04-30T13:07:52.487Z,75.80
2019-04-30T13:08:52.929Z,75.99
2019-04-30T13:09:52.528Z,76.09
2019-04-30T13:10:52.673Z,75.10
2019-04-30T13:11:52.601Z,73.49
2019-04-30T13:12:52.667Z,73.94
2019-04-30T13:13:52.670Z,76.40
2019-04-30T13:14:54.686Z,78.09
2019-04-30T13:15:52.304Z,79.10
2019-04-30T13:16:52.340Z,78.09
2019-04-30T13:17:52.379Z,76.44
2019-04-30T13:18:52.418Z,74.80
2019-04-30T13:19:52.455Z,75.73
2019-04-30T13:20:52.557Z,77.36
2019-04-30T13:21:52.532Z,77.65
2019-04-30T13:22:52.569Z,78.71
2019-04-30T13:23:52.609Z,78.42
2019-04-30T13:24:52.654Z,77.75
2019-04-30T13:25:52.683Z,77.17
2019-04-30T13:26:52.722Z,77.23
2019-04-30T13:27:52.762Z,79.36
2019-04-30T13:28:52.798Z,80.13
2019-04-30T13:29:52.837Z,80.91
2019-04-30T13:30:52.874Z,82.74
2019-04-30T13:31:52.921Z,83.47
2019-04-30T13:32:52.972Z,85.63
2019-04-30T13:33:53.613Z,85.28
2019-04-30T13:34:53.070Z,84.61
2019-04-30T13:35:53.088Z,84.66
2019-04-30T13:36:53.533Z,83.45
2019-04-30T13:37:53.137Z,79.60
2019-04-30T13:38:53.175Z,78.19
2019-04-30T13:39:53.336Z,77.08
2019-04-30T13:40:53.250Z,76.53
2019-04-30T13:41:53.335Z,74.88
2019-04-30T13:42:53.324Z,74.14
2019-04-30T13:43:53.366Z,73.43
2019-04-30T13:44:53.400Z,72.50
2019-04-30T13:45:53.438Z,68.91
2019-04-30T13:46:53.528Z,67.69
2019-04-30T13:47:53.515Z,67.75
2019-04-30T13:48:53.553Z,69.80
2019-04-30T13:49:53.593Z,73.36
2019-04-30T13:50:53.630Z,74.58
2019-04-30T13:51:53.671Z,72.18
2019-04-30T13:53:43.905Z,73.71
2019-04-30T13:54:41.314Z,74.67
2019-04-30T13:55:45.633Z,75.98
2019-04-30T13:56:41.398Z,76.01
2019-04-30T13:57:41.431Z,70.54
2019-04-30T13:58:41.472Z,66.97
2019-04-30T13:59:41.511Z,65.92
2019-04-30T14:00:44.172Z,63.79
2019-04-30T14:01:41.592Z,60.58
2019-04-30T14:02:41.631Z,57.70
2019-04-30T14:03:41.673Z,58.16
2019-04-30T14:04:41.714Z,58.00
2019-04-30T14:05:41.755Z,56.83
2019-04-30T14:06:43.013Z,56.89
2019-04-30T14:07:41.841Z,56.62
2019-04-30T14:08:41.913Z,53.93
2019-04-30T14:09:41.927Z,53.71
2019-04-30T14:10:42.174Z,53.81
2019-04-30T14:11:42.016Z,52.96
2019-04-30T14:12:45.694Z,54.70
2019-04-30T14:13:42.107Z,54.17
2019-04-30T14:14:42.151Z,54.00
2019-04-30T14:15:42.221Z,51.79
2019-04-30T14:16:45.470Z,51.72
2019-04-30T14:17:42.314Z,50.29
2019-04-30T14:18:42.333Z,51.48
2019-04-30T14:19:42.380Z,51.26
2019-04-30T14:20:42.426Z,49.44
2019-04-30T14:21:42.475Z,50.75
2019-04-30T14:22:42.520Z,49.00
2019-04-30T14:23:42.566Z,47.08
2019-04-30T14:24:42.613Z,52.97
2019-04-30T14:25:42.660Z,54.79
2019-04-30T14:26:42.712Z,55.42
2019-04-30T14:27:49.473Z,53.83
2019-04-30T14:28:42.801Z,52.94
2019-04-30T14:29:42.846Z,51.55
2019-04-30T14:30:42.894Z,51.14
2019-04-30T14:31:42.939Z,49.54
2019-04-30T14:32:42.988Z,50.16
2019-04-30T14:33:43.035Z,49.63
2019-04-30T14:34:43.095Z,47.36
2019-04-30T14:35:43.127Z,47.74
2019-04-30T14:36:43.175Z,48.34
2019-04-30T14:37:43.221Z,45.98
2019-04-30T14:38:43.268Z,46.03
2019-04-30T14:39:46.079Z,44.65
2019-04-30T14:40:43.875Z,44.79
2019-04-30T14:41:44.171Z,47.06
2019-04-30T14:42:43.945Z,48.37
2019-04-30T14:43:43.953Z,47.91
2019-04-30T14:44:44.230Z,47.20
2019-04-30T14:45:44.140Z,46.20
2019-04-30T14:46:44.029Z,45.72
2019-04-30T14:47:44.679Z,46.20
2019-04-30T14:48:44.486Z,46.20
2019-04-30T14:49:43.791Z,47.52
2019-04-30T14:50:43.840Z,47.25
2019-04-30T14:51:43.886Z,46.03
2019-04-30T14:52:43.956Z,44.76
2019-04-30T14:53:43.982Z,43.99
2019-04-30T14:54:44.028Z,43.40
2019-04-30T14:55:44.101Z,43.40
2019-04-30T14:56:44.123Z,46.28
2019-04-30T14:57:44.171Z,48.66
2019-04-30T14:58:44.218Z,53.35
2019-04-30T14:59:44.264Z,55.90
2019-04-30T15:00:44.312Z,56.24
2019-04-30T15:01:44.359Z,56.41
2019-04-30T15:02:44.404Z,55.15
2019-04-30T15:03:44.450Z,53.77
2019-04-30T15:04:44.494Z,52.39
2019-04-30T15:05:48.763Z,49.44
2019-04-30T15:06:44.584Z,50.48
2019-04-30T15:07:44.630Z,49.46
2019-04-30T15:08:44.693Z,49.34
2019-04-30T15:09:44.735Z,49.95
2019-04-30T15:10:44.784Z,52.10
2019-04-30T15:11:44.814Z,52.49